sensor_id;sensor_type;location;lat;lon;timestamp;temperature;humidity
10468;DHT22;5281;48.878;9.394;2022-12-10T00:02:03;5.40;99.90
10468;DHT22;5281;48.878;9.394;2022-12-10T00:04:31;5.40;99.90
10468;DHT22;5281;48.878;9.394;2022-12-10T00:06:57;5.40;99.90
10468;DHT22;5281;48.878;9.394;2022-12-10T00:09:24;5.30;99.90
10468;DHT22;5281;48.878;9.394;2022-12-10T00:11:51;5.30;99.90
10468;DHT22;5281;48.878;9.394;2022-12-10T00:14:18;5.30;99.90
10468;DHT22;5281;48.878;9.394;2022-12-10T00:16:45;5.20;99.90
10468;DHT22;5281;48.878;9.394;2022-12-10T00:19:12;5.20;99.90
10468;DHT22;5281;48.878;9.394;2022-12-10T00:21:40;5.20;99.90
10468;DHT22;5281;48.878;9.394;2022-12-10T00:24:09;5.20;99.90
10468;DHT22;5281;48.878;9.394;2022-12-10T00:26:37;5.20;99.90
10468;DHT22;5281;48.878;9.394;2022-12-10T00:29:07;5.30;99.90
10468;DHT22;5281;48.878;9.394;2022-12-10T00:31:37;5.30;99.90
10468;DHT22;5281;48.878;9.394;2022-12-10T00:34:07;5.30;99.90
10468;DHT22;5281;48.878;9.394;2022-12-10T00:36:36;5.40;99.90
10468;DHT22;5281;48.878;9.394;2022-12-10T00:39:05;5.40;99.90
10468;DHT22;5281;48.878;9.394;2022-12-10T00:41:32;5.40;99.90
10468;DHT22;5281;48.878;9.394;2022-12-10T00:43:58;5.20;99.90
10468;DHT22;5281;48.878;9.394;2022-12-10T00:46:26;5.10;99.90
10468;DHT22;5281;48.878;9.394;2022-12-10T00:48:53;5.00;99.90
10468;DHT22;5281;48.878;9.394;2022-12-10T00:51:21;4.90;99.90
10468;DHT22;5281;48.878;9.394;2022-12-10T00:53:50;4.80;99.90
10468;DHT22;5281;48.878;9.394;2022-12-10T00:56:20;4.90;99.90
10468;DHT22;5281;48.878;9.394;2022-12-10T00:58:48;5.00;99.90
10468;DHT22;5281;48.878;9.394;2022-12-10T01:01:17;5.00;99.90
10468;DHT22;5281;48.878;9.394;2022-12-10T01:03:45;5.00;99.90
10468;DHT22;5281;48.878;9.394;2022-12-10T01:06:14;5.00;99.90
10468;DHT22;5281;48.878;9.394;2022-12-10T01:08:42;5.00;99.90
10468;DHT22;5281;48.878;9.394;2022-12-10T01:11:10;5.00;99.90
10468;DHT22;5281;48.878;9.394;2022-12-10T01:13:39;5.00;99.90
10468;DHT22;5281;48.878;9.394;2022-12-10T01:16:08;5.10;99.90
10468;DHT22;5281;48.878;9.394;2022-12-10T01:18:35;5.10;99.90
10468;DHT22;5281;48.878;9.394;2022-12-10T01:21:02;5.10;99.90
10468;DHT22;5281;48.878;9.394;2022-12-10T01:23:31;5.00;99.90
10468;DHT22;5281;48.878;9.394;2022-12-10T01:26:00;4.80;99.90
10468;DHT22;5281;48.878;9.394;2022-12-10T01:28:29;4.70;99.90
10468;DHT22;5281;48.878;9.394;2022-12-10T01:31:00;4.70;99.90
10468;DHT22;5281;48.878;9.394;2022-12-10T01:33:26;4.80;99.90
10468;DHT22;5281;48.878;9.394;2022-12-10T01:35:53;4.70;99.90
10468;DHT22;5281;48.878;9.394;2022-12-10T01:38:20;4.70;99.90
10468;DHT22;5281;48.878;9.394;2022-12-10T01:40:48;4.60;99.90
10468;DHT22;5281;48.878;9.394;2022-12-10T01:43:15;4.50;99.90
10468;DHT22;5281;48.878;9.394;2022-12-10T01:45:42;4.50;99.90
10468;DHT22;5281;48.878;9.394;2022-12-10T01:48:10;4.50;99.90
10468;DHT22;5281;48.878;9.394;2022-12-10T01:50:37;4.60;99.90
10468;DHT22;5281;48.878;9.394;2022-12-10T01:53:04;4.70;99.90
10468;DHT22;5281;48.878;9.394;2022-12-10T01:55:46;4.70;99.90
10468;DHT22;5281;48.878;9.394;2022-12-10T01:58:15;4.80;99.90
10468;DHT22;5281;48.878;9.394;2022-12-10T02:00:56;4.80;99.90
10468;DHT22;5281;48.878;9.394;2022-12-10T02:03:36;4.90;99.90
10468;DHT22;5281;48.878;9.394;2022-12-10T02:06:14;5.00;99.90
10468;DHT22;5281;48.878;9.394;2022-12-10T02:08:50;5.00;99.90
10468;DHT22;5281;48.878;9.394;2022-12-10T02:11:26;5.00;99.90
10468;DHT22;5281;48.878;9.394;2022-12-10T02:13:58;4.90;99.90
10468;DHT22;5281;48.878;9.394;2022-12-10T02:16:31;4.90;99.90
10468;DHT22;5281;48.878;9.394;2022-12-10T02:19:13;4.90;99.90
10468;DHT22;5281;48.878;9.394;2022-12-10T02:21:44;4.90;99.90
10468;DHT22;5281;48.878;9.394;2022-12-10T02:24:16;4.90;99.90
10468;DHT22;5281;48.878;9.394;2022-12-10T02:26:49;4.90;99.90
10468;DHT22;5281;48.878;9.394;2022-12-10T02:29:21;4.90;99.90
10468;DHT22;5281;48.878;9.394;2022-12-10T02:31:53;4.90;99.90
10468;DHT22;5281;48.878;9.394;2022-12-10T02:34:22;4.90;99.90
10468;DHT22;5281;48.878;9.394;2022-12-10T02:36:52;4.90;99.90
10468;DHT22;5281;48.878;9.394;2022-12-10T02:39:23;4.80;99.90
10468;DHT22;5281;48.878;9.394;2022-12-10T02:41:53;4.80;99.90
10468;DHT22;5281;48.878;9.394;2022-12-10T02:44:23;4.70;99.90
10468;DHT22;5281;48.878;9.394;2022-12-10T02:46:53;4.70;99.90
10468;DHT22;5281;48.878;9.394;2022-12-10T02:49:21;4.70;99.90
10468;DHT22;5281;48.878;9.394;2022-12-10T02:51:50;4.70;99.90
10468;DHT22;5281;48.878;9.394;2022-12-10T02:54:38;4.70;99.90
10468;DHT22;5281;48.878;9.394;2022-12-10T02:57:23;4.70;99.90
10468;DHT22;5281;48.878;9.394;2022-12-10T03:00:02;4.60;99.90
10468;DHT22;5281;48.878;9.394;2022-12-10T03:02:34;4.70;99.90
10468;DHT22;5281;48.878;9.394;2022-12-10T03:05:12;4.70;99.90
10468;DHT22;5281;48.878;9.394;2022-12-10T03:07:46;4.80;99.90
10468;DHT22;5281;48.878;9.394;2022-12-10T03:10:19;4.80;99.90
10468;DHT22;5281;48.878;9.394;2022-12-10T03:12:49;4.70;99.90
10468;DHT22;5281;48.878;9.394;2022-12-10T03:15:20;4.70;99.90
10468;DHT22;5281;48.878;9.394;2022-12-10T03:17:48;4.60;99.90
10468;DHT22;5281;48.878;9.394;2022-12-10T03:20:16;4.60;99.90
10468;DHT22;5281;48.878;9.394;2022-12-10T03:22:45;4.50;99.90
10468;DHT22;5281;48.878;9.394;2022-12-10T03:25:15;4.30;99.90
10468;DHT22;5281;48.878;9.394;2022-12-10T03:27:45;4.30;99.90
10468;DHT22;5281;48.878;9.394;2022-12-10T03:30:12;4.30;99.90
10468;DHT22;5281;48.878;9.394;2022-12-10T03:32:40;4.30;99.90
10468;DHT22;5281;48.878;9.394;2022-12-10T03:35:09;4.40;99.90
10468;DHT22;5281;48.878;9.394;2022-12-10T03:37:37;4.40;99.90
10468;DHT22;5281;48.878;9.394;2022-12-10T03:40:06;4.50;99.90
10468;DHT22;5281;48.878;9.394;2022-12-10T03:42:35;4.50;99.90
10468;DHT22;5281;48.878;9.394;2022-12-10T03:45:02;4.60;99.90
10468;DHT22;5281;48.878;9.394;2022-12-10T03:47:30;4.70;99.90
10468;DHT22;5281;48.878;9.394;2022-12-10T03:49:58;4.70;99.90
10468;DHT22;5281;48.878;9.394;2022-12-10T03:52:25;4.70;99.90
10468;DHT22;5281;48.878;9.394;2022-12-10T03:54:51;4.70;99.90
10468;DHT22;5281;48.878;9.394;2022-12-10T03:57:18;4.70;99.90
10468;DHT22;5281;48.878;9.394;2022-12-10T03:59:45;4.60;99.90
10468;DHT22;5281;48.878;9.394;2022-12-10T04:02:12;4.60;99.90
10468;DHT22;5281;48.878;9.394;2022-12-10T04:04:39;4.60;99.90
10468;DHT22;5281;48.878;9.394;2022-12-10T04:07:07;4.70;99.90
10468;DHT22;5281;48.878;9.394;2022-12-10T04:09:34;4.70;99.90
10468;DHT22;5281;48.878;9.394;2022-12-10T04:12:01;4.70;99.90
10468;DHT22;5281;48.878;9.394;2022-12-10T04:14:28;4.80;99.90
10468;DHT22;5281;48.878;9.394;2022-12-10T04:17:12;4.90;99.90
10468;DHT22;5281;48.878;9.394;2022-12-10T04:19:39;4.90;99.90
10468;DHT22;5281;48.878;9.394;2022-12-10T04:22:09;5.00;99.90
10468;DHT22;5281;48.878;9.394;2022-12-10T04:24:54;5.00;99.90
10468;DHT22;5281;48.878;9.394;2022-12-10T04:27:38;5.10;99.90
10468;DHT22;5281;48.878;9.394;2022-12-10T04:30:08;5.10;99.90
10468;DHT22;5281;48.878;9.394;2022-12-10T04:32:36;5.00;99.90
10468;DHT22;5281;48.878;9.394;2022-12-10T04:35:03;4.70;99.90
10468;DHT22;5281;48.878;9.394;2022-12-10T04:37:32;4.50;99.90
10468;DHT22;5281;48.878;9.394;2022-12-10T04:39:58;4.50;99.90
10468;DHT22;5281;48.878;9.394;2022-12-10T04:42:25;4.60;99.90
10468;DHT22;5281;48.878;9.394;2022-12-10T04:44:52;4.70;99.90
10468;DHT22;5281;48.878;9.394;2022-12-10T04:47:19;4.80;99.90
10468;DHT22;5281;48.878;9.394;2022-12-10T04:49:46;4.80;99.90
10468;DHT22;5281;48.878;9.394;2022-12-10T04:52:14;4.90;99.90
10468;DHT22;5281;48.878;9.394;2022-12-10T04:54:43;4.90;99.90
10468;DHT22;5281;48.878;9.394;2022-12-10T04:57:10;4.90;99.90
10468;DHT22;5281;48.878;9.394;2022-12-10T04:59:37;4.90;99.90
10468;DHT22;5281;48.878;9.394;2022-12-10T05:02:05;4.90;99.90
10468;DHT22;5281;48.878;9.394;2022-12-10T05:04:33;4.90;99.90
10468;DHT22;5281;48.878;9.394;2022-12-10T05:07:00;4.90;99.90
10468;DHT22;5281;48.878;9.394;2022-12-10T05:09:27;4.90;99.90
10468;DHT22;5281;48.878;9.394;2022-12-10T05:11:55;5.00;99.90
10468;DHT22;5281;48.878;9.394;2022-12-10T05:14:22;5.00;99.90
10468;DHT22;5281;48.878;9.394;2022-12-10T05:16:49;5.00;99.90
10468;DHT22;5281;48.878;9.394;2022-12-10T05:19:16;5.00;99.90
10468;DHT22;5281;48.878;9.394;2022-12-10T05:21:45;5.00;99.90
10468;DHT22;5281;48.878;9.394;2022-12-10T05:24:29;5.00;99.90
10468;DHT22;5281;48.878;9.394;2022-12-10T05:26:58;4.90;99.90
10468;DHT22;5281;48.878;9.394;2022-12-10T05:29:25;4.80;99.90
10468;DHT22;5281;48.878;9.394;2022-12-10T05:31:52;4.70;99.90
10468;DHT22;5281;48.878;9.394;2022-12-10T05:34:19;4.60;99.90
10468;DHT22;5281;48.878;9.394;2022-12-10T05:36:45;4.40;99.90
10468;DHT22;5281;48.878;9.394;2022-12-10T05:39:12;4.20;99.90
10468;DHT22;5281;48.878;9.394;2022-12-10T05:41:39;4.00;99.90
10468;DHT22;5281;48.878;9.394;2022-12-10T05:44:09;4.00;99.90
10468;DHT22;5281;48.878;9.394;2022-12-10T05:46:36;4.00;99.90
10468;DHT22;5281;48.878;9.394;2022-12-10T05:49:05;3.80;99.90
10468;DHT22;5281;48.878;9.394;2022-12-10T05:51:33;3.80;99.90
10468;DHT22;5281;48.878;9.394;2022-12-10T05:54:01;3.90;99.90
10468;DHT22;5281;48.878;9.394;2022-12-10T05:56:29;4.00;99.90
10468;DHT22;5281;48.878;9.394;2022-12-10T05:58:58;4.10;99.90
10468;DHT22;5281;48.878;9.394;2022-12-10T06:01:29;4.10;99.90
10468;DHT22;5281;48.878;9.394;2022-12-10T06:03:58;4.00;99.90
10468;DHT22;5281;48.878;9.394;2022-12-10T06:06:27;4.00;99.90
10468;DHT22;5281;48.878;9.394;2022-12-10T06:08:55;4.00;99.90
10468;DHT22;5281;48.878;9.394;2022-12-10T06:11:23;4.00;99.90
10468;DHT22;5281;48.878;9.394;2022-12-10T06:13:52;4.00;99.90
10468;DHT22;5281;48.878;9.394;2022-12-10T06:16:20;4.00;99.90
10468;DHT22;5281;48.878;9.394;2022-12-10T06:18:48;3.90;99.90
10468;DHT22;5281;48.878;9.394;2022-12-10T06:21:17;3.90;99.90
10468;DHT22;5281;48.878;9.394;2022-12-10T06:23:44;4.00;99.90
10468;DHT22;5281;48.878;9.394;2022-12-10T06:26:13;4.20;99.90
10468;DHT22;5281;48.878;9.394;2022-12-10T06:28:41;4.10;99.90
10468;DHT22;5281;48.878;9.394;2022-12-10T06:31:08;3.90;99.90
10468;DHT22;5281;48.878;9.394;2022-12-10T06:33:35;3.90;99.90
10468;DHT22;5281;48.878;9.394;2022-12-10T06:36:05;4.00;99.90
10468;DHT22;5281;48.878;9.394;2022-12-10T06:38:33;4.00;99.90
10468;DHT22;5281;48.878;9.394;2022-12-10T06:41:01;4.00;99.90
10468;DHT22;5281;48.878;9.394;2022-12-10T06:43:30;4.10;99.90
10468;DHT22;5281;48.878;9.394;2022-12-10T06:45:57;4.00;99.90
10468;DHT22;5281;48.878;9.394;2022-12-10T06:48:23;4.20;99.90
10468;DHT22;5281;48.878;9.394;2022-12-10T06:50:50;4.30;99.90
10468;DHT22;5281;48.878;9.394;2022-12-10T06:53:19;4.40;99.90
10468;DHT22;5281;48.878;9.394;2022-12-10T06:55:45;4.40;99.90
10468;DHT22;5281;48.878;9.394;2022-12-10T06:58:12;4.30;99.90
10468;DHT22;5281;48.878;9.394;2022-12-10T07:00:39;4.40;99.90
10468;DHT22;5281;48.878;9.394;2022-12-10T07:03:06;4.30;99.90
10468;DHT22;5281;48.878;9.394;2022-12-10T07:05:33;4.00;99.90
10468;DHT22;5281;48.878;9.394;2022-12-10T07:07:59;3.90;99.90
10468;DHT22;5281;48.878;9.394;2022-12-10T07:10:28;3.90;99.90
10468;DHT22;5281;48.878;9.394;2022-12-10T07:12:54;4.00;99.90
10468;DHT22;5281;48.878;9.394;2022-12-10T07:15:22;4.20;99.90
10468;DHT22;5281;48.878;9.394;2022-12-10T07:17:50;4.20;99.90
10468;DHT22;5281;48.878;9.394;2022-12-10T07:20:17;4.40;99.90
10468;DHT22;5281;48.878;9.394;2022-12-10T07:22:44;4.50;99.90
10468;DHT22;5281;48.878;9.394;2022-12-10T07:25:11;4.60;99.90
10468;DHT22;5281;48.878;9.394;2022-12-10T07:27:40;4.60;99.90
10468;DHT22;5281;48.878;9.394;2022-12-10T07:30:08;4.70;99.90
10468;DHT22;5281;48.878;9.394;2022-12-10T07:32:34;4.80;99.90
10468;DHT22;5281;48.878;9.394;2022-12-10T07:35:01;4.80;99.90
10468;DHT22;5281;48.878;9.394;2022-12-10T07:37:28;4.70;99.90
10468;DHT22;5281;48.878;9.394;2022-12-10T07:39:55;4.80;99.90
10468;DHT22;5281;48.878;9.394;2022-12-10T07:42:22;4.80;99.90
10468;DHT22;5281;48.878;9.394;2022-12-10T07:44:50;4.90;99.90
10468;DHT22;5281;48.878;9.394;2022-12-10T07:47:17;4.80;99.90
10468;DHT22;5281;48.878;9.394;2022-12-10T07:49:45;4.70;99.90
10468;DHT22;5281;48.878;9.394;2022-12-10T07:52:11;4.60;99.90
10468;DHT22;5281;48.878;9.394;2022-12-10T07:54:38;4.70;99.90
10468;DHT22;5281;48.878;9.394;2022-12-10T07:57:05;4.70;99.90
10468;DHT22;5281;48.878;9.394;2022-12-10T07:59:32;4.60;99.90
10468;DHT22;5281;48.878;9.394;2022-12-10T08:02:00;4.70;99.90
10468;DHT22;5281;48.878;9.394;2022-12-10T08:04:28;4.70;99.90
10468;DHT22;5281;48.878;9.394;2022-12-10T08:06:55;4.80;99.90
10468;DHT22;5281;48.878;9.394;2022-12-10T08:09:22;4.70;99.90
10468;DHT22;5281;48.878;9.394;2022-12-10T08:11:49;4.70;99.90
10468;DHT22;5281;48.878;9.394;2022-12-10T08:14:16;4.80;99.90
10468;DHT22;5281;48.878;9.394;2022-12-10T08:16:43;4.90;99.90
10468;DHT22;5281;48.878;9.394;2022-12-10T08:19:11;4.90;99.90
10468;DHT22;5281;48.878;9.394;2022-12-10T08:21:38;5.00;99.90
10468;DHT22;5281;48.878;9.394;2022-12-10T08:24:05;5.00;99.90
10468;DHT22;5281;48.878;9.394;2022-12-10T08:26:32;4.80;99.90
10468;DHT22;5281;48.878;9.394;2022-12-10T08:28:59;4.80;99.90
10468;DHT22;5281;48.878;9.394;2022-12-10T08:31:27;4.70;99.90
10468;DHT22;5281;48.878;9.394;2022-12-10T08:33:54;4.60;99.90
10468;DHT22;5281;48.878;9.394;2022-12-10T08:36:22;4.60;99.90
10468;DHT22;5281;48.878;9.394;2022-12-10T08:38:49;4.50;99.90
10468;DHT22;5281;48.878;9.394;2022-12-10T08:41:18;4.40;99.90
10468;DHT22;5281;48.878;9.394;2022-12-10T08:43:46;4.20;99.90
10468;DHT22;5281;48.878;9.394;2022-12-10T08:46:14;4.10;99.90
10468;DHT22;5281;48.878;9.394;2022-12-10T08:48:41;4.20;99.90
10468;DHT22;5281;48.878;9.394;2022-12-10T08:51:11;4.00;99.90
10468;DHT22;5281;48.878;9.394;2022-12-10T08:53:41;4.00;99.90
10468;DHT22;5281;48.878;9.394;2022-12-10T08:56:08;4.10;99.90
10468;DHT22;5281;48.878;9.394;2022-12-10T08:58:36;4.20;99.90
10468;DHT22;5281;48.878;9.394;2022-12-10T09:01:06;4.50;99.90
10468;DHT22;5281;48.878;9.394;2022-12-10T09:03:34;4.70;99.90
10468;DHT22;5281;48.878;9.394;2022-12-10T09:06:02;4.60;99.90
10468;DHT22;5281;48.878;9.394;2022-12-10T09:08:29;4.50;99.90
10468;DHT22;5281;48.878;9.394;2022-12-10T09:10:58;4.40;99.90
10468;DHT22;5281;48.878;9.394;2022-12-10T09:13:24;4.40;99.90
10468;DHT22;5281;48.878;9.394;2022-12-10T09:15:52;4.40;99.90
10468;DHT22;5281;48.878;9.394;2022-12-10T09:18:19;4.50;99.90
10468;DHT22;5281;48.878;9.394;2022-12-10T09:20:46;4.50;99.90
10468;DHT22;5281;48.878;9.394;2022-12-10T09:23:12;4.60;99.90
10468;DHT22;5281;48.878;9.394;2022-12-10T09:25:39;4.70;99.90
10468;DHT22;5281;48.878;9.394;2022-12-10T09:28:07;4.70;99.90
10468;DHT22;5281;48.878;9.394;2022-12-10T09:30:34;4.70;99.90
10468;DHT22;5281;48.878;9.394;2022-12-10T09:33:01;4.70;99.90
10468;DHT22;5281;48.878;9.394;2022-12-10T09:35:28;4.60;99.90
10468;DHT22;5281;48.878;9.394;2022-12-10T09:37:54;4.60;99.90
10468;DHT22;5281;48.878;9.394;2022-12-10T09:40:36;4.50;99.90
10468;DHT22;5281;48.878;9.394;2022-12-10T09:43:09;4.60;99.90
10468;DHT22;5281;48.878;9.394;2022-12-10T09:45:46;4.80;99.90
10468;DHT22;5281;48.878;9.394;2022-12-10T09:48:21;5.00;99.90
10468;DHT22;5281;48.878;9.394;2022-12-10T09:50:55;5.10;99.90
10468;DHT22;5281;48.878;9.394;2022-12-10T09:53:24;5.10;99.90
10468;DHT22;5281;48.878;9.394;2022-12-10T09:55:53;5.20;99.90
10468;DHT22;5281;48.878;9.394;2022-12-10T09:58:24;5.30;99.90
10468;DHT22;5281;48.878;9.394;2022-12-10T10:00:55;5.40;99.90
10468;DHT22;5281;48.878;9.394;2022-12-10T10:03:23;5.50;99.90
10468;DHT22;5281;48.878;9.394;2022-12-10T10:05:51;5.40;99.90
10468;DHT22;5281;48.878;9.394;2022-12-10T10:08:25;5.30;99.90
10468;DHT22;5281;48.878;9.394;2022-12-10T10:10:54;5.40;99.90
10468;DHT22;5281;48.878;9.394;2022-12-10T10:13:29;5.60;99.90
10468;DHT22;5281;48.878;9.394;2022-12-10T10:16:01;5.70;99.90
10468;DHT22;5281;48.878;9.394;2022-12-10T10:18:37;5.50;99.90
10468;DHT22;5281;48.878;9.394;2022-12-10T10:21:09;5.30;99.90
10468;DHT22;5281;48.878;9.394;2022-12-10T10:23:39;5.30;99.90
10468;DHT22;5281;48.878;9.394;2022-12-10T10:26:07;5.30;99.90
10468;DHT22;5281;48.878;9.394;2022-12-10T10:28:35;5.40;99.90
10468;DHT22;5281;48.878;9.394;2022-12-10T10:31:07;5.50;99.90
10468;DHT22;5281;48.878;9.394;2022-12-10T10:33:48;5.80;99.90
10468;DHT22;5281;48.878;9.394;2022-12-10T10:36:15;5.80;99.90
10468;DHT22;5281;48.878;9.394;2022-12-10T10:38:47;6.00;99.90
10468;DHT22;5281;48.878;9.394;2022-12-10T10:41:14;6.00;99.90
10468;DHT22;5281;48.878;9.394;2022-12-10T10:43:43;6.20;99.90
10468;DHT22;5281;48.878;9.394;2022-12-10T10:46:12;6.20;99.90
10468;DHT22;5281;48.878;9.394;2022-12-10T10:48:40;6.00;99.90
10468;DHT22;5281;48.878;9.394;2022-12-10T10:51:14;6.20;99.90
10468;DHT22;5281;48.878;9.394;2022-12-10T10:53:45;6.20;99.90
10468;DHT22;5281;48.878;9.394;2022-12-10T10:56:13;5.90;99.90
10468;DHT22;5281;48.878;9.394;2022-12-10T10:58:56;5.80;99.90
10468;DHT22;5281;48.878;9.394;2022-12-10T11:01:26;5.60;99.90
10468;DHT22;5281;48.878;9.394;2022-12-10T11:03:56;5.60;99.90
10468;DHT22;5281;48.878;9.394;2022-12-10T11:06:23;5.60;99.90
10468;DHT22;5281;48.878;9.394;2022-12-10T11:08:53;5.80;99.90
10468;DHT22;5281;48.878;9.394;2022-12-10T11:11:25;6.00;99.90
10468;DHT22;5281;48.878;9.394;2022-12-10T11:14:13;6.20;99.90
10468;DHT22;5281;48.878;9.394;2022-12-10T11:16:40;6.40;99.90
10468;DHT22;5281;48.878;9.394;2022-12-10T11:19:19;6.70;99.90
10468;DHT22;5281;48.878;9.394;2022-12-10T11:21:47;6.80;99.90
10468;DHT22;5281;48.878;9.394;2022-12-10T11:24:16;6.90;99.90
10468;DHT22;5281;48.878;9.394;2022-12-10T11:26:52;7.10;99.90
10468;DHT22;5281;48.878;9.394;2022-12-10T11:29:36;7.20;99.90
10468;DHT22;5281;48.878;9.394;2022-12-10T11:32:13;7.20;99.90
10468;DHT22;5281;48.878;9.394;2022-12-10T11:34:51;7.20;99.90
10468;DHT22;5281;48.878;9.394;2022-12-10T11:37:27;7.10;99.90
10468;DHT22;5281;48.878;9.394;2022-12-10T11:40:08;7.00;99.90
10468;DHT22;5281;48.878;9.394;2022-12-10T11:42:47;6.70;99.90
10468;DHT22;5281;48.878;9.394;2022-12-10T11:45:22;6.70;99.90
10468;DHT22;5281;48.878;9.394;2022-12-10T11:48:00;6.60;99.90
10468;DHT22;5281;48.878;9.394;2022-12-10T11:50:37;6.30;99.90
10468;DHT22;5281;48.878;9.394;2022-12-10T11:53:24;5.90;99.90
10468;DHT22;5281;48.878;9.394;2022-12-10T11:56:02;5.70;99.90
10468;DHT22;5281;48.878;9.394;2022-12-10T11:58:43;5.80;99.90
10468;DHT22;5281;48.878;9.394;2022-12-10T12:01:21;6.00;99.90
10468;DHT22;5281;48.878;9.394;2022-12-10T12:04:15;6.00;99.90
10468;DHT22;5281;48.878;9.394;2022-12-10T12:07:00;5.90;99.90
10468;DHT22;5281;48.878;9.394;2022-12-10T12:09:36;5.80;99.90
10468;DHT22;5281;48.878;9.394;2022-12-10T12:12:15;5.80;99.90
10468;DHT22;5281;48.878;9.394;2022-12-10T12:14:48;5.90;99.90
10468;DHT22;5281;48.878;9.394;2022-12-10T12:17:21;5.90;99.90
10468;DHT22;5281;48.878;9.394;2022-12-10T12:19:51;5.70;99.90
10468;DHT22;5281;48.878;9.394;2022-12-10T12:22:23;5.60;99.90
10468;DHT22;5281;48.878;9.394;2022-12-10T12:24:55;5.40;99.90
10468;DHT22;5281;48.878;9.394;2022-12-10T12:27:29;5.30;99.90
10468;DHT22;5281;48.878;9.394;2022-12-10T12:30:03;5.20;99.90
10468;DHT22;5281;48.878;9.394;2022-12-10T12:32:40;5.30;99.90
10468;DHT22;5281;48.878;9.394;2022-12-10T12:35:14;5.20;99.90
10468;DHT22;5281;48.878;9.394;2022-12-10T12:37:47;5.10;99.90
10468;DHT22;5281;48.878;9.394;2022-12-10T12:40:24;5.20;99.90
10468;DHT22;5281;48.878;9.394;2022-12-10T12:42:56;5.10;99.90
10468;DHT22;5281;48.878;9.394;2022-12-10T12:45:31;5.00;99.90
10468;DHT22;5281;48.878;9.394;2022-12-10T12:48:09;4.90;99.90
10468;DHT22;5281;48.878;9.394;2022-12-10T12:50:43;5.00;99.90
10468;DHT22;5281;48.878;9.394;2022-12-10T12:53:13;5.10;99.90
10468;DHT22;5281;48.878;9.394;2022-12-10T12:55:46;5.00;99.90
10468;DHT22;5281;48.878;9.394;2022-12-10T12:58:23;4.90;99.90
10468;DHT22;5281;48.878;9.394;2022-12-10T13:00:55;4.90;99.90
10468;DHT22;5281;48.878;9.394;2022-12-10T13:03:34;4.80;99.90
10468;DHT22;5281;48.878;9.394;2022-12-10T13:06:15;4.80;99.90
10468;DHT22;5281;48.878;9.394;2022-12-10T13:08:43;4.80;99.90
10468;DHT22;5281;48.878;9.394;2022-12-10T13:11:29;5.00;99.90
10468;DHT22;5281;48.878;9.394;2022-12-10T13:14:30;5.00;99.90
10468;DHT22;5281;48.878;9.394;2022-12-10T13:17:26;5.20;99.90
10468;DHT22;5281;48.878;9.394;2022-12-10T13:20:28;5.30;99.90
10468;DHT22;5281;48.878;9.394;2022-12-10T13:22:57;5.20;99.90
10468;DHT22;5281;48.878;9.394;2022-12-10T13:25:41;5.20;99.90
10468;DHT22;5281;48.878;9.394;2022-12-10T13:28:23;5.20;99.90
10468;DHT22;5281;48.878;9.394;2022-12-10T13:31:18;5.00;99.90
10468;DHT22;5281;48.878;9.394;2022-12-10T13:33:51;4.80;99.90
10468;DHT22;5281;48.878;9.394;2022-12-10T13:36:25;4.80;99.90
10468;DHT22;5281;48.878;9.394;2022-12-10T13:39:10;4.80;99.90
10468;DHT22;5281;48.878;9.394;2022-12-10T13:41:40;4.90;99.90
10468;DHT22;5281;48.878;9.394;2022-12-10T13:44:33;5.00;99.90
10468;DHT22;5281;48.878;9.394;2022-12-10T13:47:05;4.90;99.90
10468;DHT22;5281;48.878;9.394;2022-12-10T13:49:51;4.90;99.90
10468;DHT22;5281;48.878;9.394;2022-12-10T13:52:24;4.90;99.90
10468;DHT22;5281;48.878;9.394;2022-12-10T13:58:23;4.80;99.90
10468;DHT22;5281;48.878;9.394;2022-12-10T14:00:56;4.80;99.90
10468;DHT22;5281;48.878;9.394;2022-12-10T14:06:40;4.60;99.90
10468;DHT22;5281;48.878;9.394;2022-12-10T14:09:14;4.70;99.90
10468;DHT22;5281;48.878;9.394;2022-12-10T14:11:49;4.70;99.90
10468;DHT22;5281;48.878;9.394;2022-12-10T14:14:28;4.70;99.90
10468;DHT22;5281;48.878;9.394;2022-12-10T14:16:59;4.60;99.90
10468;DHT22;5281;48.878;9.394;2022-12-10T14:19:28;4.40;99.90
10468;DHT22;5281;48.878;9.394;2022-12-10T14:21:55;4.40;99.90
10468;DHT22;5281;48.878;9.394;2022-12-10T14:24:29;4.30;99.90
10468;DHT22;5281;48.878;9.394;2022-12-10T14:26:59;4.50;99.90
10468;DHT22;5281;48.878;9.394;2022-12-10T14:29:26;4.50;99.90
10468;DHT22;5281;48.878;9.394;2022-12-10T14:31:52;4.50;99.90
10468;DHT22;5281;48.878;9.394;2022-12-10T14:34:24;4.50;99.90
10468;DHT22;5281;48.878;9.394;2022-12-10T14:36:53;4.50;99.90
10468;DHT22;5281;48.878;9.394;2022-12-10T14:39:25;4.40;99.90
10468;DHT22;5281;48.878;9.394;2022-12-10T14:41:56;4.40;99.90
10468;DHT22;5281;48.878;9.394;2022-12-10T14:44:24;4.30;99.90
10468;DHT22;5281;48.878;9.394;2022-12-10T14:46:51;4.30;99.90
10468;DHT22;5281;48.878;9.394;2022-12-10T14:49:20;4.30;99.90
10468;DHT22;5281;48.878;9.394;2022-12-10T14:51:48;4.30;99.90
10468;DHT22;5281;48.878;9.394;2022-12-10T14:54:25;4.30;99.90
10468;DHT22;5281;48.878;9.394;2022-12-10T14:56:54;4.40;99.90
10468;DHT22;5281;48.878;9.394;2022-12-10T14:59:24;4.70;99.90
10468;DHT22;5281;48.878;9.394;2022-12-10T15:01:56;4.80;99.90
10468;DHT22;5281;48.878;9.394;2022-12-10T15:04:24;4.80;99.90
10468;DHT22;5281;48.878;9.394;2022-12-10T15:06:57;4.90;99.90
10468;DHT22;5281;48.878;9.394;2022-12-10T15:09:26;4.80;99.90
10468;DHT22;5281;48.878;9.394;2022-12-10T15:11:54;4.90;99.90
10468;DHT22;5281;48.878;9.394;2022-12-10T15:14:23;4.90;99.90
10468;DHT22;5281;48.878;9.394;2022-12-10T15:16:50;5.10;99.90
10468;DHT22;5281;48.878;9.394;2022-12-10T15:19:21;5.20;99.90
10468;DHT22;5281;48.878;9.394;2022-12-10T15:21:49;5.30;99.90
10468;DHT22;5281;48.878;9.394;2022-12-10T15:24:19;5.30;99.90
10468;DHT22;5281;48.878;9.394;2022-12-10T15:26:47;5.20;99.90
10468;DHT22;5281;48.878;9.394;2022-12-10T15:29:35;5.20;99.90
10468;DHT22;5281;48.878;9.394;2022-12-10T15:32:08;5.20;99.90
10468;DHT22;5281;48.878;9.394;2022-12-10T15:34:42;5.30;99.90
10468;DHT22;5281;48.878;9.394;2022-12-10T15:37:19;5.20;99.90
10468;DHT22;5281;48.878;9.394;2022-12-10T15:39:49;5.10;99.90
10468;DHT22;5281;48.878;9.394;2022-12-10T15:42:41;5.00;99.90
10468;DHT22;5281;48.878;9.394;2022-12-10T15:45:22;4.80;99.90
10468;DHT22;5281;48.878;9.394;2022-12-10T15:47:51;4.70;99.90
10468;DHT22;5281;48.878;9.394;2022-12-10T15:50:18;4.60;99.90
10468;DHT22;5281;48.878;9.394;2022-12-10T15:52:45;4.50;99.90
10468;DHT22;5281;48.878;9.394;2022-12-10T15:55:13;4.30;99.90
10468;DHT22;5281;48.878;9.394;2022-12-10T15:57:41;4.30;99.90
10468;DHT22;5281;48.878;9.394;2022-12-10T16:00:23;4.20;99.90
10468;DHT22;5281;48.878;9.394;2022-12-10T16:02:53;4.10;99.90
10468;DHT22;5281;48.878;9.394;2022-12-10T16:05:25;4.00;99.90
10468;DHT22;5281;48.878;9.394;2022-12-10T16:07:55;4.10;99.90
10468;DHT22;5281;48.878;9.394;2022-12-10T16:10:24;4.00;99.90
10468;DHT22;5281;48.878;9.394;2022-12-10T16:12:58;4.00;99.90
10468;DHT22;5281;48.878;9.394;2022-12-10T16:15:29;3.90;99.90
10468;DHT22;5281;48.878;9.394;2022-12-10T16:17:56;3.80;99.90
10468;DHT22;5281;48.878;9.394;2022-12-10T16:20:25;3.80;99.90
10468;DHT22;5281;48.878;9.394;2022-12-10T16:22:52;3.80;99.90
10468;DHT22;5281;48.878;9.394;2022-12-10T16:25:20;3.70;99.90
10468;DHT22;5281;48.878;9.394;2022-12-10T16:27:47;3.70;99.90
10468;DHT22;5281;48.878;9.394;2022-12-10T16:30:18;3.60;99.90
10468;DHT22;5281;48.878;9.394;2022-12-10T16:32:47;3.60;99.90